Time;durP1;ratioP1;P1;durP2;ratioP2;P2;SDS_P1;SDS_P2;PMS_P1;PMS_P2;Temp;Humidity;BMP_temperature;BMP_pressure;BME280_temperature;BME280_humidity;BME280_pressure;Samples;Min_cycle;Max_cycle;Signal;HPM_P1;HPM_P2
2023/03/18 00:02:17;;;;;;;6.25;2.58;;;;;;;10.45;75.85;98983.50;4975141;28;20078;-51
2023/03/18 00:04:44;;;;;;;6.35;2.28;;;;;;;10.43;76.49;98978.31;4976665;28;20125;-51
2023/03/18 00:07:11;;;;;;;9.43;2.55;;;;;;;10.41;76.26;98977.50;4975920;28;20141;-48
2023/03/18 00:09:37;;;;;;;8.60;2.40;;;;;;;10.41;77.10;98988.69;4977119;28;20178;-49
2023/03/18 00:12:05;;;;;;;5.25;1.98;;;;;;;10.41;76.63;98986.13;4971481;28;20534;-50
2023/03/18 00:14:35;;;;;;;7.05;2.45;;;;;;;10.40;77.32;98975.78;4978808;28;20064;-52
2023/03/18 00:17:01;;;;;;;8.38;2.25;;;;;;;10.35;77.83;98983.66;4975986;28;20071;-50
2023/03/18 00:19:28;;;;;;;4.63;2.38;;;;;;;10.39;77.51;98977.53;4978190;28;20093;-51
2023/03/18 00:21:55;;;;;;;9.23;2.53;;;;;;;10.38;77.66;98982.75;4976844;28;20110;-48
2023/03/18 00:24:21;;;;;;;8.75;3.05;;;;;;;10.36;78.00;98976.72;4980728;28;20097;-48
2023/03/18 00:26:48;;;;;;;5.78;2.58;;;;;;;10.39;77.57;98981.84;4976141;28;20170;-50
2023/03/18 00:29:14;;;;;;;6.35;2.45;;;;;;;10.33;77.96;98975.06;4978226;28;20129;-49
2023/03/18 00:31:42;;;;;;;5.30;2.63;;;;;;;10.31;77.96;98978.56;4977650;28;20690;-51
2023/03/18 00:34:09;;;;;;;12.13;2.63;;;;;;;10.27;78.03;98981.22;4974311;28;20051;-48
2023/03/18 00:36:38;;;;;;;7.18;2.80;;;;;;;10.25;78.52;98982.97;4978110;28;20050;-49
2023/03/18 00:39:06;;;;;;;8.63;3.38;;;;;;;10.24;78.80;98976.09;4977865;28;20062;-51
2023/03/18 00:41:35;;;;;;;6.15;2.72;;;;;;;10.27;78.02;98978.63;4977291;28;20046;-48
2023/03/18 00:44:02;;;;;;;7.22;3.75;;;;;;;10.21;78.56;98981.34;4979703;28;20069;-48
2023/03/18 00:46:32;;;;;;;6.82;2.95;;;;;;;10.20;78.43;98979.59;4977718;28;21801;-49
2023/03/18 00:49:02;;;;;;;7.35;3.13;;;;;;;10.23;77.40;98976.13;4976853;28;20059;-49
2023/03/18 00:51:31;;;;;;;10.57;2.83;;;;;;;10.19;77.95;98977.91;4978802;28;20439;-49
2023/03/18 00:54:00;;;;;;;5.80;3.13;;;;;;;10.14;78.03;98974.56;4977202;28;20046;-48
2023/03/18 00:56:29;;;;;;;8.68;4.10;;;;;;;10.15;77.72;98976.25;4980938;28;20062;-48
2023/03/18 00:58:56;;;;;;;8.20;3.50;;;;;;;10.14;78.14;98979.75;4978537;28;20054;-49
2023/03/18 01:01:24;;;;;;;5.35;2.72;;;;;;;10.12;78.18;98981.50;4985098;28;20572;-51
2023/03/18 01:03:51;;;;;;;9.00;3.20;;;;;;;10.11;78.55;98975.47;4998261;28;20578;-47
2023/03/18 01:06:22;;;;;;;7.88;3.40;;;;;;;10.10;78.10;98975.50;4990715;28;20049;-50
2023/03/18 01:08:50;;;;;;;6.80;3.17;;;;;;;10.12;77.85;98965.97;4984508;28;20054;-49
2023/03/18 01:11:17;;;;;;;5.78;2.78;;;;;;;10.08;78.54;98979.84;4983026;28;20568;-50
2023/03/18 01:13:45;;;;;;;10.35;3.88;;;;;;;10.11;77.48;98979.78;4984159;28;20074;-48
2023/03/18 01:16:12;;;;;;;7.05;2.78;;;;;;;10.09;77.65;98981.53;4983560;28;20507;-48
2023/03/18 01:18:40;;;;;;;8.43;3.15;;;;;;;10.10;77.91;98972.91;4980829;28;20089;-49
2023/03/18 01:21:09;;;;;;;10.02;3.72;;;;;;;10.11;78.08;98977.19;4980280;28;20058;-48
2023/03/18 01:23:38;;;;;;;11.98;4.38;;;;;;;10.09;77.95;98976.38;4961918;28;20337;-50
2023/03/18 01:26:06;;;;;;;11.25;4.65;;;;;;;10.09;77.73;98976.38;4993562;28;20057;-48
2023/03/18 01:28:34;;;;;;;8.98;4.13;;;;;;;10.09;77.80;98972.06;5006765;28;20046;-48
2023/03/18 01:31:03;;;;;;;10.52;4.88;;;;;;;10.11;77.94;98970.31;4999946;28;20468;-48
2023/03/18 01:33:32;;;;;;;14.27;4.13;;;;;;;10.12;77.27;98973.72;4998429;28;20077;-52
2023/03/18 01:36:03;;;;;;;9.98;4.78;;;;;;;10.14;77.15;98974.56;4994407;28;20476;-51
2023/03/18 01:38:32;;;;;;;14.10;4.00;;;;;;;10.12;78.00;98973.72;5002533;28;20182;-52
2023/03/18 01:41:02;;;;;;;10.93;5.78;;;;;;;10.11;78.20;98975.47;4999544;28;20049;-50
2023/03/18 01:43:32;;;;;;;9.15;4.82;;;;;;;10.13;77.90;98967.66;4995400;28;20048;-48
2023/03/18 01:46:40;;;;;;;13.18;4.93;;;;;;;10.05;78.71;98966.94;5005618;28;20050;-49
2023/03/18 01:49:34;;;;;;;8.43;4.15;;;;;;;10.05;77.74;98969.53;4989821;28;20489;-48
2023/03/18 01:52:07;;;;;;;11.77;4.20;;;;;;;10.07;78.68;98978.13;5003463;28;20049;-50
2023/03/18 01:54:40;;;;;;;11.35;5.15;;;;;;;10.10;77.88;98972.91;5005110;28;20107;-50
2023/03/18 01:57:08;;;;;;;13.93;4.18;;;;;;;10.09;78.20;98966.00;5005215;28;20108;-49
2023/03/18 01:59:39;;;;;;;10.77;4.65;;;;;;;10.12;78.42;98971.13;5003699;28;20084;-50
2023/03/18 02:02:10;;;;;;;12.30;4.28;;;;;;;10.13;78.60;98972.84;4999830;28;20077;-52
2023/03/18 02:04:42;;;;;;;9.80;4.45;;;;;;;10.17;78.69;98974.50;5002552;28;20077;-49
2023/03/18 02:07:32;;;;;;;12.77;4.43;;;;;;;10.17;78.67;98974.50;5000696;28;20100;-52
2023/03/18 02:10:04;;;;;;;10.60;4.40;;;;;;;10.20;78.66;98964.09;4994410;28;20077;-50
2023/03/18 02:12:35;;;;;;;16.38;4.50;;;;;;;10.25;78.34;98970.03;4980383;28;20120;-51
2023/03/18 02:15:06;;;;;;;12.95;3.78;;;;;;;10.24;77.81;98965.72;5000426;28;20069;-51
2023/03/18 02:17:36;;;;;;;10.30;4.40;;;;;;;10.24;78.45;98967.47;4994389;28;20056;-52
2023/03/18 02:23:11;;;;;;;12.20;6.40;;;;;;;10.27;78.46;98957.91;5053059;27;20408;-49
2023/03/18 02:28:51;;;;;;;13.40;4.28;;;;;;;10.32;78.65;98949.22;5025731;27;20466;-48
2023/03/18 02:31:18;;;;;;;9.00;4.90;;;;;;;10.29;77.59;98953.56;5001623;28;21827;-49
2023/03/18 02:33:46;;;;;;;9.07;4.15;;;;;;;10.26;77.44;98953.63;4995338;28;20477;-48
2023/03/18 02:36:18;;;;;;;10.73;4.65;;;;;;;10.23;77.84;98951.09;5000470;28;20050;-51
2023/03/18 02:38:46;;;;;;;15.55;4.75;;;;;;;10.21;77.52;98955.47;4993680;28;20069;-49
2023/03/18 02:41:17;;;;;;;11.60;4.18;;;;;;;10.19;78.00;98957.22;4999448;28;20506;-48
2023/03/18 02:43:44;;;;;;;11.90;4.50;;;;;;;10.21;77.28;98957.19;5003482;28;20057;-49
2023/03/18 02:46:51;;;;;;;14.77;4.78;;;;;;;10.16;78.08;98957.25;4999668;28;20077;-49
2023/03/18 02:49:19;;;;;;;14.48;4.95;;;;;;;10.22;77.93;98956.28;4994605;28;20046;-49
2023/03/18 02:51:46;;;;;;;13.90;5.32;;;;;;;10.21;77.82;98959.78;4993737;28;20062;-52
2023/03/18 02:54:16;;;;;;;11.95;4.93;;;;;;;10.23;77.87;98961.44;4997792;28;20050;-51
2023/03/18 02:56:43;;;;;;;19.05;5.50;;;;;;;10.24;77.55;98960.56;5015532;28;20545;-51
2023/03/18 02:59:10;;;;;;;17.85;5.68;;;;;;;10.25;77.84;98961.41;4990220;28;20078;-51
2023/03/18 03:01:39;;;;;;;14.30;5.65;;;;;;;10.28;77.49;98957.06;4999276;28;20094;-47
2023/03/18 03:04:06;;;;;;;15.13;4.70;;;;;;;10.28;77.71;98959.63;5005610;28;20054;-51
2023/03/18 03:06:34;;;;;;;15.13;5.85;;;;;;;10.28;78.17;98951.88;4997589;28;20077;-48
2023/03/18 03:09:01;;;;;;;15.13;5.03;;;;;;;10.31;78.23;98952.69;4994247;28;20104;-49
2023/03/18 03:11:28;;;;;;;12.38;4.38;;;;;;;10.28;78.27;98949.28;5002610;28;20050;-48
2023/03/18 03:13:55;;;;;;;12.85;5.65;;;;;;;10.25;78.97;98945.88;4998907;28;20327;-50
2023/03/18 03:16:22;;;;;;;13.48;5.10;;;;;;;10.25;77.91;98945.88;5003038;28;20095;-51
2023/03/18 03:18:50;;;;;;;16.95;5.30;;;;;;;10.22;78.66;98948.53;5000790;28;20046;-48
2023/03/18 03:21:17;;;;;;;12.68;4.75;;;;;;;10.17;78.24;98959.00;4998285;28;20573;-50
2023/03/18 03:23:44;;;;;;;15.63;5.53;;;;;;;10.14;78.86;98956.44;5010511;28;20042;-48
2023/03/18 03:26:11;;;;;;;13.43;5.63;;;;;;;10.16;78.35;98952.09;4996386;28;20096;-49
2023/03/18 03:28:38;;;;;;;15.18;5.22;;;;;;;10.17;78.67;98953.81;4990410;28;20182;-48
2023/03/18 03:31:05;;;;;;;11.05;4.93;;;;;;;10.21;78.42;98955.47;5000286;28;20081;-48
2023/03/18 03:33:32;;;;;;;13.85;4.60;;;;;;;10.20;78.75;98953.72;4990340;28;20077;-48
2023/03/18 03:35:59;;;;;;;10.70;4.38;;;;;;;10.24;78.10;98950.19;4995756;28;20082;-49
2023/03/18 03:38:25;;;;;;;14.45;4.75;;;;;;;10.27;78.06;98954.50;4992238;28;20050;-49
2023/03/18 03:40:53;;;;;;;10.18;4.55;;;;;;;10.27;78.30;98952.75;4973415;28;20172;-48
2023/03/18 03:43:20;;;;;;;9.65;4.03;;;;;;;10.28;78.20;98956.19;4978314;28;20073;-48
2023/03/18 03:45:46;;;;;;;10.75;4.35;;;;;;;10.30;78.02;98951.81;4979327;28;20613;-49
2023/03/18 03:48:13;;;;;;;15.38;5.07;;;;;;;10.29;77.96;98958.75;4981795;28;20151;-49
2023/03/18 03:50:40;;;;;;;8.07;3.92;;;;;;;10.31;77.99;98956.13;4986048;28;20081;-48
2023/03/18 03:53:08;;;;;;;11.98;4.05;;;;;;;10.33;78.16;98964.72;4969951;28;20050;-48
2023/03/18 03:55:35;;;;;;;11.90;4.22;;;;;;;10.34;78.16;98960.41;4974982;28;20050;-51
2023/03/18 03:58:02;;;;;;;11.15;4.18;;;;;;;10.33;77.95;98974.22;4973604;28;20451;-51
2023/03/18 04:00:29;;;;;;;12.52;4.15;;;;;;;10.32;78.60;98969.91;4967544;28;20543;-49
2023/03/18 04:02:56;;;;;;;12.93;4.93;;;;;;;10.33;77.70;98974.22;4968040;28;20054;-48
2023/03/18 04:05:23;;;;;;;11.73;4.43;;;;;;;10.35;77.85;98977.63;4966058;28;20133;-49
2023/03/18 04:07:51;;;;;;;11.57;4.70;;;;;;;10.35;78.34;98993.16;4966001;28;20593;-50
2023/03/18 04:10:19;;;;;;;12.35;4.35;;;;;;;10.32;78.78;98991.47;4973304;28;20495;-49
2023/03/18 04:12:47;;;;;;;12.82;4.63;;;;;;;10.35;77.90;98993.16;4981470;28;20050;-50
2023/03/18 04:15:16;;;;;;;14.30;4.97;;;;;;;10.37;78.28;99001.75;4973090;28;20479;-52
2023/03/18 04:17:43;;;;;;;13.05;4.15;;;;;;;10.38;78.08;98993.09;4974355;28;20145;-50
2023/03/18 04:20:10;;;;;;;12.20;4.15;;;;;;;10.38;78.30;98987.94;4968676;28;20077;-52
2023/03/18 04:22:39;;;;;;;12.18;4.90;;;;;;;10.38;77.70;98993.97;4966668;28;20106;-48
2023/03/18 04:25:07;;;;;;;15.10;5.03;;;;;;;10.39;78.50;98994.81;4997152;28;20121;-50
2023/03/18 04:27:33;;;;;;;12.57;5.53;;;;;;;10.38;78.44;98993.09;4966867;28;20154;-49
2023/03/18 04:30:00;;;;;;;11.45;4.65;;;;;;;10.35;77.79;98993.16;4970602;28;20502;-48
2023/03/18 04:32:26;;;;;;;11.38;5.35;;;;;;;10.35;77.69;98993.16;4967476;28;20134;-51
2023/03/18 04:34:53;;;;;;;14.30;5.03;;;;;;;10.36;78.43;98992.25;4975307;28;20054;-49
2023/03/18 04:37:20;;;;;;;13.18;5.35;;;;;;;10.36;77.85;98989.66;4975666;28;20506;-48
2023/03/18 04:39:47;;;;;;;11.43;4.78;;;;;;;10.40;78.62;98996.50;4972187;28;20055;-48
2023/03/18 04:42:14;;;;;;;12.27;4.82;;;;;;;10.37;78.64;98992.22;4971093;28;20097;-50
2023/03/18 04:44:41;;;;;;;12.27;4.20;;;;;;;10.36;78.22;98987.94;4976340;28;20623;-49
2023/03/18 04:47:08;;;;;;;9.02;4.13;;;;;;;10.39;77.51;98989.63;4982377;28;20046;-49
2023/03/18 04:49:34;;;;;;;12.55;4.88;;;;;;;10.39;77.55;98989.63;4978778;28;20438;-49
2023/03/18 04:52:01;;;;;;;10.98;4.65;;;;;;;10.41;78.22;98993.06;4972089;28;20074;-48
2023/03/18 04:54:28;;;;;;;11.77;4.18;;;;;;;10.40;77.80;98991.31;4981433;28;20074;-49
2023/03/18 04:56:54;;;;;;;10.50;4.32;;;;;;;10.39;78.30;98999.97;4971588;28;20438;-49
2023/03/18 04:59:21;;;;;;;11.57;4.25;;;;;;;10.37;78.02;98996.59;4969859;28;20565;-51
2023/03/18 05:01:47;;;;;;;11.15;4.97;;;;;;;10.37;78.38;99002.59;4973146;28;20588;-48
2023/03/18 05:04:14;;;;;;;10.13;3.92;;;;;;;10.35;78.27;99004.38;4975937;28;20074;-47
2023/03/18 05:06:41;;;;;;;11.15;4.72;;;;;;;10.34;78.10;99006.97;5007419;28;20451;-49
2023/03/18 05:09:08;;;;;;;8.70;4.60;;;;;;;10.34;77.56;99004.41;4978710;28;20043;-49
2023/03/18 05:11:35;;;;;;;11.43;4.30;;;;;;;10.27;77.83;99007.09;4979731;28;20050;-47
2023/03/18 05:14:02;;;;;;;12.05;4.72;;;;;;;10.25;77.91;99000.22;4972116;28;20047;-49
2023/03/18 05:16:28;;;;;;;13.02;4.70;;;;;;;10.26;78.20;99005.38;4979621;28;20141;-48
2023/03/18 05:18:55;;;;;;;13.82;4.55;;;;;;;10.25;78.03;98998.50;4974046;28;20046;-50
2023/03/18 05:21:22;;;;;;;14.15;5.00;;;;;;;10.25;77.93;98993.34;4979099;28;20736;-51
2023/03/18 05:23:49;;;;;;;13.40;4.85;;;;;;;10.21;78.41;98996.88;4979505;28;20630;-48
2023/03/18 05:26:16;;;;;;;15.75;4.68;;;;;;;10.17;78.20;98992.63;4975533;28;20664;-48
2023/03/18 05:28:42;;;;;;;13.80;5.03;;;;;;;10.15;78.11;99002.13;4977409;28;20585;-49
2023/03/18 05:31:09;;;;;;;15.93;5.20;;;;;;;10.13;78.85;98998.72;4978281;28;21498;-49
2023/03/18 05:33:35;;;;;;;12.52;4.70;;;;;;;10.13;78.47;99006.47;4973787;28;20125;-51
2023/03/18 05:36:02;;;;;;;16.80;5.45;;;;;;;10.11;78.56;99013.44;4974044;28;20043;-49
2023/03/18 05:38:29;;;;;;;13.25;5.60;;;;;;;10.09;78.57;99015.16;4968870;28;20050;-48
2023/03/18 05:40:56;;;;;;;15.60;5.25;;;;;;;10.08;78.86;99010.88;4976865;28;20069;-52
2023/03/18 05:43:23;;;;;;;14.68;5.45;;;;;;;10.07;78.54;99022.13;4973531;28;20061;-48
2023/03/18 05:45:50;;;;;;;16.83;5.28;;;;;;;10.07;78.30;99017.81;4974427;28;20501;-49
2023/03/18 05:48:16;;;;;;;16.40;5.38;;;;;;;10.05;78.98;99023.88;4976056;28;20053;-48
2023/03/18 05:50:43;;;;;;;15.88;6.07;;;;;;;10.05;78.28;99023.88;4975766;28;20050;-50
2023/03/18 05:53:10;;;;;;;17.05;6.40;;;;;;;10.07;78.83;99019.53;4978784;28;20094;-48
2023/03/18 05:55:39;;;;;;;24.17;6.75;;;;;;;10.09;78.76;99028.09;4985098;28;20054;-51
2023/03/18 05:58:06;;;;;;;15.75;5.78;;;;;;;10.09;78.97;99033.28;4972631;28;20050;-51
2023/03/18 06:00:33;;;;;;;21.05;7.45;;;;;;;10.05;79.16;99022.16;4972807;28;22506;-48
2023/03/18 06:03:00;;;;;;;19.15;6.22;;;;;;;10.06;78.48;99023.84;4965867;28;20082;-48
2023/03/18 06:05:28;;;;;;;14.57;6.32;;;;;;;10.07;78.54;99029.88;4966937;28;20823;-49
2023/03/18 06:07:56;;;;;;;25.15;7.43;;;;;;;10.07;78.54;99019.53;4965141;28;20955;-50
2023/03/18 06:10:24;;;;;;;18.10;6.78;;;;;;;10.08;78.35;99023.81;4965137;28;20094;-49
2023/03/18 06:12:51;;;;;;;13.70;5.20;;;;;;;10.07;78.94;99024.72;4963441;28;21362;-49
2023/03/18 06:15:20;;;;;;;15.80;6.88;;;;;;;10.06;78.78;99023.84;4970608;28;20145;-49
2023/03/18 06:17:47;;;;;;;18.40;6.70;;;;;;;10.08;79.33;99021.22;4965729;28;20453;-49
2023/03/18 06:20:14;;;;;;;22.95;6.90;;;;;;;10.09;79.26;99023.78;4974581;28;20050;-52
2023/03/18 06:22:42;;;;;;;19.20;5.90;;;;;;;10.06;78.76;99028.19;4968909;28;20057;-52
2023/03/18 06:25:10;;;;;;;16.83;5.68;;;;;;;10.06;78.84;99023.00;4962452;28;21777;-50
2023/03/18 06:27:37;;;;;;;20.90;6.53;;;;;;;10.08;78.99;99018.66;4964595;28;20137;-50
2023/03/18 06:30:04;;;;;;;15.68;6.07;;;;;;;10.10;79.27;99016.91;4966636;28;20217;-49
2023/03/18 06:32:32;;;;;;;24.08;7.35;;;;;;;10.11;78.64;99016.00;4971471;28;20085;-50
2023/03/18 06:34:59;;;;;;;17.63;6.95;;;;;;;10.13;78.82;99009.06;4974219;28;20058;-51
2023/03/18 06:37:27;;;;;;;19.92;7.47;;;;;;;10.13;78.75;99029.75;4972720;28;20071;-50
2023/03/18 06:39:53;;;;;;;22.95;7.22;;;;;;;10.12;79.19;99034.09;4978260;28;20035;-48
2023/03/18 06:42:20;;;;;;;23.65;6.93;;;;;;;10.12;79.41;99038.41;4972472;28;20924;-48
2023/03/18 06:44:50;;;;;;;24.15;7.05;;;;;;;10.12;79.66;99038.41;4968630;28;20501;-48
2023/03/18 06:47:18;;;;;;;20.00;7.80;;;;;;;10.11;79.30;99036.72;4966076;28;20558;-48
2023/03/18 06:49:45;;;;;;;23.60;7.68;;;;;;;10.13;79.38;99040.09;4976373;28;20105;-49
2023/03/18 06:52:13;;;;;;;24.67;7.00;;;;;;;10.17;79.47;99041.78;4972674;28;20070;-49
2023/03/18 06:54:40;;;;;;;22.35;7.32;;;;;;;10.19;79.11;99040.00;4969842;28;20061;-49
2023/03/18 06:57:07;;;;;;;16.85;6.80;;;;;;;10.23;79.78;99049.44;4968965;28;20811;-48
2023/03/18 06:59:34;;;;;;;16.23;5.00;;;;;;;10.19;79.54;99047.78;4970645;28;20066;-49
2023/03/18 07:02:02;;;;;;;18.27;6.78;;;;;;;10.23;79.17;99048.59;4970377;28;20528;-51
2023/03/18 07:04:29;;;;;;;17.88;6.13;;;;;;;10.19;79.95;99047.78;4973316;28;20066;-49
2023/03/18 07:06:56;;;;;;;17.52;5.68;;;;;;;10.24;79.80;99048.53;4974747;28;20109;-49
2023/03/18 07:09:23;;;;;;;19.05;5.95;;;;;;;10.24;80.21;99040.78;4972530;28;20105;-49
2023/03/18 07:11:50;;;;;;;17.50;6.18;;;;;;;10.23;79.92;99049.44;4977583;28;20050;-49
2023/03/18 07:14:17;;;;;;;21.83;6.10;;;;;;;10.29;79.88;99053.66;4976229;28;20054;-51
2023/03/18 07:16:44;;;;;;;19.10;6.45;;;;;;;10.33;79.38;99062.22;4979956;28;20042;-49
2023/03/18 07:19:11;;;;;;;14.63;5.38;;;;;;;10.38;79.52;99061.25;4979537;28;20133;-49
2023/03/18 07:21:39;;;;;;;16.38;6.63;;;;;;;10.43;79.63;99058.56;4984431;28;20051;-50
2023/03/18 07:24:06;;;;;;;23.13;6.38;;;;;;;10.47;79.86;99060.25;4980688;28;20170;-51
2023/03/18 07:26:32;;;;;;;17.10;6.07;;;;;;;10.51;79.93;99061.91;4986291;28;20069;-52
2023/03/18 07:28:59;;;;;;;16.90;5.80;;;;;;;10.55;79.58;99057.53;4982743;28;20133;-51
2023/03/18 07:31:26;;;;;;;18.35;5.78;;;;;;;10.59;79.75;99061.78;4980895;28;20129;-50
2023/03/18 07:33:53;;;;;;;18.92;5.93;;;;;;;10.59;79.78;99060.91;4985071;28;20113;-51
2023/03/18 07:36:19;;;;;;;18.10;5.63;;;;;;;10.64;80.15;99064.28;4983759;28;20078;-49
2023/03/18 07:38:46;;;;;;;17.35;5.93;;;;;;;10.61;80.52;99066.94;4977649;28;20097;-49
2023/03/18 07:41:12;;;;;;;16.17;5.32;;;;;;;10.63;79.70;99065.16;4975288;28;20667;-48
2023/03/18 07:43:39;;;;;;;13.77;5.35;;;;;;;10.63;80.20;99070.31;4971664;28;20154;-49
2023/03/18 07:46:06;;;;;;;20.63;5.78;;;;;;;10.66;79.72;99071.13;4975035;28;20165;-51
2023/03/18 07:48:33;;;;;;;19.40;5.82;;;;;;;10.66;79.85;99070.28;4987505;28;20527;-48
2023/03/18 07:51:00;;;;;;;14.98;5.47;;;;;;;10.65;79.99;99073.75;4974329;28;20113;-50
2023/03/18 07:53:27;;;;;;;13.85;5.30;;;;;;;10.69;80.21;99070.22;4976994;28;20046;-50
2023/03/18 07:55:54;;;;;;;14.45;5.60;;;;;;;10.71;80.71;99072.78;4974664;28;20046;-52
2023/03/18 07:58:20;;;;;;;14.88;5.03;;;;;;;10.73;80.00;99071.88;4974701;28;20046;-48
2023/03/18 08:00:48;;;;;;;15.35;4.63;;;;;;;10.77;80.05;99070.94;4972274;28;20808;-50
2023/03/18 08:03:15;;;;;;;10.38;3.70;;;;;;;10.77;81.17;99068.34;4977330;28;20134;-49
2023/03/18 08:05:42;;;;;;;14.52;5.28;;;;;;;10.83;81.44;99071.69;4978249;28;20046;-49
2023/03/18 08:08:08;;;;;;;12.80;4.28;;;;;;;10.97;80.74;99081.78;4978411;28;20135;-51
2023/03/18 08:10:35;;;;;;;16.85;5.07;;;;;;;11.05;80.24;99075.56;4980693;28;20117;-50
2023/03/18 08:13:02;;;;;;;12.75;4.70;;;;;;;11.16;81.28;99074.50;4983482;28;20506;-48
2023/03/18 08:15:30;;;;;;;12.02;4.95;;;;;;;11.18;80.32;99089.13;4975111;28;20058;-50
2023/03/18 08:17:57;;;;;;;15.70;4.80;;;;;;;11.17;80.66;99086.56;4976893;28;20043;-49
2023/03/18 08:20:24;;;;;;;11.15;4.43;;;;;;;11.23;81.12;99089.03;4980021;28;20117;-52
2023/03/18 08:22:50;;;;;;;11.75;4.40;;;;;;;11.19;80.31;99089.97;5005431;28;20053;-52
2023/03/18 08:25:17;;;;;;;11.55;4.93;;;;;;;11.22;81.14;99089.91;4977308;28;20577;-49
2023/03/18 08:27:44;;;;;;;15.27;4.65;;;;;;;11.23;80.93;99093.34;4976535;28;20677;-49
2023/03/18 08:30:11;;;;;;;8.50;4.53;;;;;;;11.22;80.38;99097.69;4975886;28;20451;-52
2023/03/18 08:32:38;;;;;;;9.90;4.05;;;;;;;11.22;80.47;99097.69;4974469;28;20081;-52
2023/03/18 08:35:05;;;;;;;7.80;3.53;;;;;;;11.23;80.91;99102.00;4976748;28;20050;-52
2023/03/18 08:37:32;;;;;;;7.07;3.20;;;;;;;11.20;79.89;99096.88;4975922;28;20101;-52
2023/03/18 08:39:59;;;;;;;10.85;3.65;;;;;;;11.26;80.27;99101.94;4976687;28;20105;-48
2023/03/18 08:42:26;;;;;;;8.30;3.38;;;;;;;11.26;79.90;99101.94;4975471;28;20058;-50
2023/03/18 08:44:53;;;;;;;14.52;3.70;;;;;;;11.27;80.33;99097.59;4976490;28;20038;-48
2023/03/18 08:47:20;;;;;;;7.40;3.17;;;;;;;11.29;80.65;99101.84;4973310;28;20047;-47
2023/03/18 08:49:46;;;;;;;14.75;3.53;;;;;;;11.36;79.86;99104.31;4978393;28;20081;-51
2023/03/18 08:52:17;;;;;;;10.80;3.53;;;;;;;11.42;79.31;99101.59;4978320;28;20123;-50
2023/03/18 08:54:44;;;;;;;6.38;3.35;;;;;;;11.56;80.79;99104.72;4980612;28;20729;-51
2023/03/18 08:57:11;;;;;;;8.70;3.33;;;;;;;11.85;79.90;99104.97;4978342;28;20109;-49
2023/03/18 08:59:38;;;;;;;6.88;3.58;;;;;;;12.06;78.61;99100.22;4980269;28;20131;-48
2023/03/18 09:02:04;;;;;;;7.90;2.70;;;;;;;12.17;79.00;99105.13;4970311;28;20078;-48
2023/03/18 09:04:31;;;;;;;9.45;2.88;;;;;;;12.20;78.84;99100.69;4970675;28;20197;-51
2023/03/18 09:06:59;;;;;;;5.25;2.33;;;;;;;12.20;79.00;99108.50;4971891;28;20146;-49
2023/03/18 09:09:26;;;;;;;9.00;2.50;;;;;;;12.16;78.75;99098.25;4973599;28;20051;-49
2023/03/18 09:12:08;;;;;;;12.00;3.13;;;;;;;12.19;78.65;99108.53;4979750;28;20144;-48
2023/03/18 09:14:35;;;;;;;8.38;3.22;;;;;;;12.25;78.09;99103.19;4975810;28;20046;-49
2023/03/18 09:17:01;;;;;;;5.82;2.63;;;;;;;12.28;78.27;99103.13;4976069;28;20129;-48
2023/03/18 09:19:28;;;;;;;10.48;3.13;;;;;;;12.37;77.75;99101.19;4978099;28;20046;-50
2023/03/18 09:21:55;;;;;;;9.02;3.10;;;;;;;12.46;78.46;99106.13;4971215;28;20046;-47
2023/03/18 09:24:21;;;;;;;10.18;3.42;;;;;;;12.72;78.75;99097.66;4975371;28;20057;-49
2023/03/18 09:26:48;;;;;;;8.48;3.30;;;;;;;13.19;77.18;99100.72;5003129;28;20113;-49
2023/03/18 09:29:15;;;;;;;5.85;2.70;;;;;;;13.56;77.25;99102.28;4973330;28;20063;-50
2023/03/18 09:31:41;;;;;;;8.10;2.00;;;;;;;13.72;75.40;99107.00;4976335;28;20054;-51
2023/03/18 09:34:12;;;;;;;4.68;2.03;;;;;;;13.69;75.89;99107.09;4973282;28;20070;-52
2023/03/18 09:36:40;;;;;;;7.18;2.03;;;;;;;13.56;74.62;99115.28;4975628;28;20046;-49
2023/03/18 09:39:07;;;;;;;5.07;1.73;;;;;;;13.49;74.91;99104.22;4981892;28;20074;-49
2023/03/18 09:44:21;;;;;;;5.95;1.77;;;;;;;13.65;75.14;99113.28;5058348;27;20401;-48
2023/03/18 09:52:26;;;;;;;5.55;2.10;;;;;;;14.02;73.30;99114.75;5077072;27;20386;-49
2023/03/18 09:55:09;;;;;;;2.60;1.85;;;;;;;14.02;73.14;99112.16;5025793;28;20072;-48
2023/03/18 09:57:39;;;;;;;3.97;1.45;;;;;;;14.02;72.92;99112.16;5011964;28;20074;-52
2023/03/18 10:03:09;;;;;;;6.25;2.63;;;;;;;13.99;72.83;99118.28;5066108;27;20391;-49
2023/03/18 10:05:50;;;;;;;6.35;2.83;;;;;;;13.94;71.97;99120.19;5037570;28;20049;-49
2023/03/18 10:08:27;;;;;;;10.00;2.85;;;;;;;13.80;71.71;99122.38;5043014;28;20533;-50
2023/03/18 10:10:54;;;;;;;7.05;2.83;;;;;;;13.75;72.38;99118.16;5037443;28;20057;-49
2023/03/18 10:13:28;;;;;;;4.22;3.38;;;;;;;13.59;72.06;99125.59;5042887;28;20077;-49
2023/03/18 10:15:59;;;;;;;4.93;2.58;;;;;;;13.45;72.25;99119.91;5042289;28;20887;-48
2023/03/18 10:18:30;;;;;;;6.35;2.00;;;;;;;13.41;72.10;99131.31;5043907;28;20803;-49
2023/03/18 10:26:51;;;;;;;3.97;2.15;;;;;;;13.47;73.07;99123.31;5026648;27;20409;-51
2023/03/18 10:29:58;;;;;;;6.95;1.73;;;;;;;13.40;72.62;99130.44;4995263;28;20467;-48
2023/03/18 10:32:41;;;;;;;4.68;1.88;;;;;;;13.42;72.71;99123.47;4998806;28;20089;-51
2023/03/18 10:38:03;;;;;;;6.68;4.10;;;;;;;13.61;73.10;99131.59;5102849;27;21099;-52
2023/03/18 10:40:40;;;;;;;8.80;5.10;;;;;;;13.70;72.22;99140.00;5102150;28;20071;-52
2023/03/18 10:43:15;;;;;;;5.95;3.80;;;;;;;13.75;72.39;99135.53;5102966;28;20048;-53
2023/03/18 10:45:44;;;;;;;7.18;3.78;;;;;;;13.85;72.72;99136.13;5099322;28;20067;-49
2023/03/18 10:51:08;;;;;;;5.38;1.67;;;;;;;14.01;72.27;99132.13;5048859;27;20401;-50
2023/03/18 10:53:44;;;;;;;5.45;1.55;;;;;;;14.13;71.71;99135.22;5044112;28;20102;-50
2023/03/18 10:56:13;;;;;;;4.88;1.30;;;;;;;14.13;72.05;99125.69;5042290;28;20508;-49
2023/03/18 10:58:41;;;;;;;5.13;1.50;;;;;;;14.17;71.26;99130.75;5019002;28;20100;-49
2023/03/18 11:01:11;;;;;;;3.75;1.20;;;;;;;14.15;70.73;99128.22;5000698;28;20068;-47
2023/03/18 11:06:26;;;;;;;7.03;1.80;;;;;;;14.26;71.31;99130.47;5019697;28;20740;-48
2023/03/18 11:09:14;;;;;;;3.05;1.17;;;;;;;14.26;70.76;99127.88;5021578;28;20058;-49
2023/03/18 11:11:44;;;;;;;2.97;1.05;;;;;;;14.30;69.88;99132.09;5021777;28;20497;-49
2023/03/18 11:14:15;;;;;;;3.25;1.10;;;;;;;14.40;70.59;99133.47;5032885;28;20058;-49
2023/03/18 11:16:56;;;;;;;3.80;1.02;;;;;;;14.48;70.22;99130.63;5024379;28;20042;-51
2023/03/18 11:19:46;;;;;;;5.80;1.88;;;;;;;14.53;70.17;99133.91;5041204;28;20081;-50
2023/03/18 11:22:23;;;;;;;5.28;1.48;;;;;;;14.63;69.58;99137.03;5030449;28;20103;-49
2023/03/18 11:28:02;;;;;;;4.90;0.90;;;;;;;14.73;69.41;99131.53;5056249;27;20403;-52
2023/03/18 11:30:42;;;;;;;5.80;1.40;;;;;;;14.71;69.15;99126.38;5021501;28;20053;-51
2023/03/18 11:35:54;;;;;;;5.22;1.15;;;;;;;14.73;69.82;99118.50;5024384;27;20899;-50
2023/03/18 11:38:31;;;;;;;9.85;1.77;;;;;;;14.71;69.22;99125.50;5021723;28;20053;-51
2023/03/18 11:41:17;;;;;;;5.07;1.25;;;;;;;14.63;68.10;99124.00;5041943;28;20073;-52
2023/03/18 11:44:06;;;;;;;3.90;1.25;;;;;;;14.59;67.70;99122.41;5044516;28;20045;-53
2023/03/18 11:46:56;;;;;;;3.45;1.83;;;;;;;14.61;68.64;99117.16;5024237;28;20183;-49
2023/03/18 11:49:26;;;;;;;7.00;1.77;;;;;;;14.67;68.80;99121.31;5050080;28;20073;-53
2023/03/18 11:52:23;;;;;;;2.33;0.85;;;;;;;14.60;68.29;99118.94;5027544;28;20080;-50
2023/03/18 11:55:03;;;;;;;3.65;1.15;;;;;;;14.67;68.09;99118.69;5025236;28;20053;-51
2023/03/18 12:00:39;;;;;;;6.90;2.60;;;;;;;14.61;67.27;99124.97;5024616;27;21092;-49
2023/03/18 12:08:49;;;;;;;5.80;1.13;;;;;;;14.68;67.90;99131.69;5033614;27;21094;-50
2023/03/18 12:27:56;;;;;;;3.95;2.72;;;;;;;15.06;67.69;99115.63;5081927;27;20393;-51
2023/03/18 12:41:26;;;;;;;2.13;0.80;;;;;;;15.36;66.55;99117.13;5039572;27;20775;-50
2023/03/18 12:46:34;;;;;;;5.22;1.33;;;;;;;15.47;66.56;99116.75;5095110;27;20724;-51
2023/03/18 12:49:16;;;;;;;2.85;0.82;;;;;;;15.52;66.54;99113.06;5080722;28;20121;-52
2023/03/18 12:54:29;;;;;;;2.30;0.90;;;;;;;15.76;66.51;99119.97;5029864;27;20398;-51
2023/03/18 12:57:02;;;;;;;2.83;1.38;;;;;;;15.86;66.85;99121.34;5018330;28;20050;-51
2023/03/18 12:59:37;;;;;;;4.80;1.17;;;;;;;15.96;66.13;99120.97;5001960;28;20050;-49